createdAt,value
2023-03-15T00:02:23.464Z,99484.47
2023-03-15T00:04:55.044Z,99496.25
2023-03-15T00:07:26.036Z,99505.00
2023-03-15T00:09:54.395Z,99508.69
2023-03-15T00:12:23.506Z,99514.09
2023-03-15T00:14:52.106Z,99510.16
2023-03-15T00:17:19.802Z,99521.31
2023-03-15T00:19:47.966Z,99523.28
2023-03-15T00:22:17.085Z,99531.78
2023-03-15T00:24:45.232Z,99537.06
2023-03-15T00:27:13.080Z,99535.38
2023-03-15T00:29:40.803Z,99540.19
2023-03-15T00:32:08.470Z,99540.31
2023-03-15T00:34:36.134Z,99554.81
2023-03-15T00:37:03.831Z,99554.41
2023-03-15T00:39:37.727Z,99549.19
2023-03-15T00:42:05.781Z,99556.91
2023-03-15T00:44:33.423Z,99550.00
2023-03-15T00:47:01.084Z,99562.75
2023-03-15T00:49:28.783Z,99555.88
2023-03-15T00:51:56.640Z,99561.09
2023-03-15T00:54:25.144Z,99564.50
2023-03-15T00:56:54.417Z,99563.59
2023-03-15T00:59:22.345Z,99567.66
2023-03-15T01:01:50.005Z,99568.06
2023-03-15T01:04:17.678Z,99574.50
2023-03-15T01:06:45.292Z,99577.34
2023-03-15T01:09:13.162Z,99581.06
2023-03-15T01:11:40.898Z,99581.47
2023-03-15T01:14:10.640Z,99576.78
2023-03-15T01:16:38.258Z,99584.41
2023-03-15T01:19:06.172Z,99579.53
2023-03-15T01:21:33.867Z,99577.75
2023-03-15T01:24:01.527Z,99568.78
2023-03-15T01:26:29.649Z,99572.56
2023-03-15T01:28:57.354Z,99574.81
2023-03-15T01:31:28.049Z,99575.75
2023-03-15T01:33:56.092Z,99579.34
2023-03-15T01:36:24.321Z,99575.91
2023-03-15T01:38:52.382Z,99572.81
2023-03-15T01:41:20.748Z,99579.22
2023-03-15T01:43:49.020Z,99578.97
2023-03-15T01:46:35.903Z,99585.28
2023-03-15T01:49:08.892Z,99581.72
2023-03-15T01:51:41.705Z,99581.25
2023-03-15T01:54:14.528Z,99591.44
2023-03-15T01:56:45.928Z,99595.84
2023-03-15T01:59:17.891Z,99598.44
2023-03-15T02:01:46.866Z,99604.13
2023-03-15T02:04:25.024Z,99608.63
2023-03-15T02:06:59.025Z,99613.38
2023-03-15T02:09:31.802Z,99613.00
2023-03-15T02:12:00.160Z,99606.72
2023-03-15T02:14:28.916Z,99621.53
2023-03-15T02:16:56.636Z,99625.09
2023-03-15T02:19:38.012Z,99622.22
2023-03-15T02:22:24.054Z,99628.38
2023-03-15T02:25:00.718Z,99626.69
2023-03-15T02:27:32.053Z,99633.47
2023-03-15T02:30:03.120Z,99637.75
2023-03-15T02:32:32.097Z,99641.06
2023-03-15T02:35:00.319Z,99643.56
2023-03-15T02:37:28.325Z,99640.72
2023-03-15T02:39:55.960Z,99643.56
2023-03-15T02:42:24.540Z,99647.75
2023-03-15T02:44:55.750Z,99649.97
2023-03-15T02:47:28.237Z,99651.06
2023-03-15T02:49:56.443Z,99657.00
2023-03-15T02:52:24.632Z,99646.56
2023-03-15T02:54:54.131Z,99637.00
2023-03-15T02:57:22.376Z,99644.59
2023-03-15T02:59:50.907Z,99642.91
2023-03-15T03:02:20.620Z,99654.53
2023-03-15T03:04:48.532Z,99655.75
2023-03-15T03:07:16.823Z,99655.22
2023-03-15T03:09:44.749Z,99646.97
2023-03-15T03:12:12.836Z,99655.91
2023-03-15T03:14:43.345Z,99647.88
2023-03-15T03:17:11.337Z,99660.44
2023-03-15T03:19:40.356Z,99658.69
2023-03-15T03:22:08.166Z,99658.06
2023-03-15T03:24:35.867Z,99668.97
2023-03-15T03:27:03.781Z,99669.16
2023-03-15T03:29:31.762Z,99669.94
2023-03-15T03:32:00.420Z,99668.91
2023-03-15T03:34:28.119Z,99673.75
2023-03-15T03:36:57.152Z,99672.34
2023-03-15T03:39:24.847Z,99671.47
2023-03-15T03:41:52.685Z,99675.31
2023-03-15T03:44:20.564Z,99673.84
2023-03-15T03:46:48.335Z,99680.34
2023-03-15T03:49:16.292Z,99680.28
2023-03-15T03:51:44.000Z,99683.13
2023-03-15T03:54:13.124Z,99686.34
2023-03-15T03:56:40.854Z,99690.13
2023-03-15T03:59:08.580Z,99685.97
2023-03-15T04:01:36.193Z,99690.63
2023-03-15T04:04:03.845Z,99691.94
2023-03-15T04:06:32.202Z,99694.16
2023-03-15T04:08:59.890Z,99686.69
2023-03-15T04:11:29.180Z,99696.78
2023-03-15T04:13:56.921Z,99704.41
2023-03-15T04:16:25.689Z,99692.91
2023-03-15T04:18:56.245Z,99695.63
2023-03-15T04:21:24.317Z,99698.03
2023-03-15T04:23:52.087Z,99706.91
2023-03-15T04:26:19.755Z,99707.38
2023-03-15T04:28:48.753Z,99703.25
2023-03-15T04:31:16.678Z,99709.72
2023-03-15T04:33:44.455Z,99708.06
2023-03-15T04:36:18.927Z,99695.41
2023-03-15T04:38:47.621Z,99710.59
2023-03-15T04:41:16.307Z,99705.13
2023-03-15T04:43:44.295Z,99712.22
2023-03-15T04:46:13.551Z,99709.63
2023-03-15T04:48:41.701Z,99705.59
2023-03-15T04:51:09.460Z,99704.03
2023-03-15T04:53:39.051Z,99708.22
2023-03-15T04:56:07.189Z,99702.41
2023-03-15T04:58:34.920Z,99706.56
2023-03-15T05:01:02.727Z,99706.06
2023-03-15T05:03:32.028Z,99710.81
2023-03-15T05:05:59.756Z,99709.50
2023-03-15T05:08:27.378Z,99712.97
2023-03-15T05:10:55.250Z,99710.84
2023-03-15T05:13:22.815Z,99712.16
2023-03-15T05:15:50.457Z,99708.91
2023-03-15T05:18:18.045Z,99707.75
2023-03-15T05:20:46.968Z,99722.22
2023-03-15T05:23:14.753Z,99722.94
2023-03-15T05:25:43.209Z,99729.00
2023-03-15T05:28:11.002Z,99722.00
2023-03-15T05:30:38.694Z,99716.88
2023-03-15T05:33:06.406Z,99726.25
2023-03-15T05:35:34.285Z,99724.81
2023-03-15T05:38:03.621Z,99728.38
2023-03-15T05:40:31.293Z,99719.50
2023-03-15T05:42:58.869Z,99725.03
2023-03-15T05:45:26.636Z,99740.69
2023-03-15T05:47:54.258Z,99735.50
2023-03-15T05:50:21.960Z,99725.31
2023-03-15T05:52:51.714Z,99733.59
2023-03-15T05:55:21.134Z,99748.00
2023-03-15T05:57:48.868Z,99749.25
2023-03-15T06:00:17.604Z,99754.59
2023-03-15T06:02:46.372Z,99761.09
2023-03-15T06:05:14.477Z,99763.22
2023-03-15T06:07:42.214Z,99760.25
2023-03-15T06:10:11.654Z,99766.09
2023-03-15T06:12:40.783Z,99778.41
2023-03-15T06:15:09.529Z,99780.28
2023-03-15T06:17:37.312Z,99784.84
2023-03-15T06:20:05.509Z,99778.06
2023-03-15T06:22:33.282Z,99785.97
2023-03-15T06:25:02.237Z,99776.25
2023-03-15T06:27:29.903Z,99785.78
2023-03-15T06:29:59.595Z,99785.50
2023-03-15T06:32:27.388Z,99785.66
2023-03-15T06:34:55.184Z,99787.78
2023-03-15T06:37:34.507Z,99783.28
2023-03-15T06:40:04.116Z,99797.75
2023-03-15T06:42:31.983Z,99796.06
2023-03-15T06:45:01.179Z,99797.13
2023-03-15T06:47:29.192Z,99793.88
2023-03-15T06:49:57.121Z,99798.00
2023-03-15T06:52:25.124Z,99807.72
2023-03-15T06:54:53.105Z,99810.69
2023-03-15T06:57:20.820Z,99807.63
2023-03-15T06:59:48.817Z,99814.03
2023-03-15T07:02:19.717Z,99817.72
2023-03-15T07:04:49.400Z,99819.84
2023-03-15T07:07:17.773Z,99817.94
2023-03-15T07:09:45.609Z,99828.41
2023-03-15T07:12:13.743Z,99831.28
2023-03-15T07:14:41.823Z,99827.09
2023-03-15T07:17:09.605Z,99834.59
2023-03-15T07:19:46.792Z,99828.41
2023-03-15T07:22:22.731Z,99826.06
2023-03-15T07:24:51.198Z,99831.59
2023-03-15T07:27:19.705Z,99819.50
2023-03-15T07:29:47.580Z,99839.59
2023-03-15T07:32:15.984Z,99835.66
2023-03-15T07:34:45.167Z,99844.94
2023-03-15T07:37:12.828Z,99848.59
2023-03-15T07:39:41.396Z,99857.75
2023-03-15T07:42:10.282Z,99858.84
2023-03-15T07:44:38.010Z,99856.94
2023-03-15T07:47:05.997Z,99845.28
2023-03-15T07:49:34.677Z,99849.22
2023-03-15T07:52:03.818Z,99850.63
2023-03-15T07:54:32.049Z,99849.66
2023-03-15T07:56:59.797Z,99848.97
2023-03-15T07:59:27.570Z,99846.69
2023-03-15T08:01:55.544Z,99855.84
2023-03-15T08:04:23.175Z,99856.03
2023-03-15T08:06:51.092Z,99862.13
2023-03-15T08:09:20.167Z,99861.56
2023-03-15T08:11:47.839Z,99875.94
2023-03-15T08:14:15.787Z,99884.72
2023-03-15T08:16:43.490Z,99872.84
2023-03-15T08:19:11.207Z,99873.31
2023-03-15T08:21:39.126Z,99860.72
2023-03-15T08:24:07.403Z,99862.50
2023-03-15T08:26:36.704Z,99862.75
2023-03-15T08:29:04.779Z,99866.41
2023-03-15T08:31:32.736Z,99863.34
2023-03-15T08:34:00.611Z,99870.00
2023-03-15T08:36:28.811Z,99861.56
2023-03-15T08:38:56.783Z,99885.06
2023-03-15T08:41:24.490Z,99882.47
2023-03-15T08:43:53.715Z,99876.06
2023-03-15T08:46:22.202Z,99880.44
2023-03-15T08:48:49.948Z,99890.31
2023-03-15T08:51:17.763Z,99887.13
2023-03-15T08:53:45.426Z,99895.69
2023-03-15T08:56:13.038Z,99888.44
2023-03-15T08:58:41.618Z,99891.59
2023-03-15T09:01:12.534Z,99885.53
2023-03-15T09:03:42.454Z,99888.50
2023-03-15T09:06:10.550Z,99896.34
2023-03-15T09:08:38.507Z,99909.94
2023-03-15T09:11:06.466Z,99915.97
2023-03-15T09:13:34.971Z,99916.31
2023-03-15T09:16:03.489Z,99918.09
2023-03-15T09:18:34.006Z,99916.53
2023-03-15T09:21:01.891Z,99917.53
2023-03-15T09:23:29.817Z,99909.59
2023-03-15T09:25:57.731Z,99915.91
2023-03-15T09:28:26.892Z,99909.22
2023-03-15T09:30:55.203Z,99917.47
2023-03-15T09:33:23.597Z,99920.59
2023-03-15T09:35:53.685Z,99921.28
2023-03-15T09:38:24.100Z,99936.97
2023-03-15T09:40:57.722Z,99928.19
2023-03-15T09:43:44.137Z,99919.59
2023-03-15T09:46:27.752Z,99940.25
2023-03-15T09:49:00.995Z,99929.34
2023-03-15T09:51:42.054Z,99944.09
2023-03-15T09:54:13.904Z,99929.28
2023-03-15T09:56:46.987Z,99933.81
2023-03-15T09:59:22.638Z,99941.25
2023-03-15T10:01:55.452Z,99933.41
2023-03-15T10:04:28.782Z,99942.16
2023-03-15T10:07:00.678Z,99938.56
2023-03-15T10:09:32.984Z,99943.31
2023-03-15T10:12:06.116Z,99943.97
2023-03-15T10:14:54.396Z,99943.31
2023-03-15T10:17:29.429Z,99945.59
2023-03-15T10:20:01.917Z,99945.53
2023-03-15T10:22:37.541Z,99951.22
2023-03-15T10:25:14.420Z,99956.13
2023-03-15T10:27:46.911Z,99954.97
2023-03-15T10:30:18.688Z,99966.72
2023-03-15T10:32:50.797Z,99969.19
2023-03-15T10:35:19.762Z,99961.94
2023-03-15T10:37:49.367Z,99965.16
2023-03-15T10:40:38.576Z,99961.81
2023-03-15T10:43:14.436Z,99950.75
2023-03-15T10:45:42.119Z,99950.75
2023-03-15T10:48:10.091Z,99958.72
2023-03-15T10:50:40.523Z,99958.59
2023-03-15T10:53:12.871Z,99956.69
2023-03-15T10:55:45.187Z,99953.47
2023-03-15T10:58:30.356Z,99955.59
2023-03-15T11:01:03.790Z,99953.19
2023-03-15T11:03:32.252Z,99948.97
2023-03-15T11:06:00.632Z,99950.00
2023-03-15T11:08:40.655Z,99957.69
2023-03-15T11:11:09.578Z,99952.97
2023-03-15T11:13:38.762Z,99941.44
2023-03-15T11:16:09.848Z,99952.19
2023-03-15T11:18:44.435Z,99952.88
2023-03-15T11:21:15.272Z,99945.28
2023-03-15T11:23:47.328Z,99958.50
2023-03-15T11:26:31.503Z,99960.31
2023-03-15T11:29:03.175Z,99958.91
2023-03-15T11:31:32.374Z,99966.41
2023-03-15T11:34:04.627Z,99970.38
2023-03-15T11:36:37.036Z,99959.69
2023-03-15T11:39:06.901Z,99953.84
2023-03-15T11:41:38.008Z,99958.28
2023-03-15T11:44:16.758Z,99965.75
2023-03-15T11:46:49.713Z,99954.97
2023-03-15T11:49:24.788Z,99965.06
2023-03-15T11:51:57.055Z,99952.25
2023-03-15T11:54:29.879Z,99971.06
2023-03-15T11:56:58.839Z,99976.31
2023-03-15T11:59:29.583Z,99975.19
2023-03-15T12:02:00.163Z,99989.28
2023-03-15T12:04:42.333Z,99986.59
2023-03-15T12:07:30.054Z,99982.56
2023-03-15T12:10:19.044Z,99989.03
2023-03-15T12:12:48.195Z,99986.31
2023-03-15T12:15:48.862Z,99992.72
2023-03-15T12:18:20.990Z,99976.75
2023-03-15T12:20:58.868Z,99975.16
2023-03-15T12:23:38.934Z,99982.25
2023-03-15T12:26:13.661Z,99984.75
2023-03-15T12:28:45.318Z,99987.47
2023-03-15T12:31:14.920Z,99982.13
2023-03-15T12:33:48.079Z,99998.44
2023-03-15T12:36:30.229Z,99994.91
2023-03-15T12:39:04.913Z,99992.81
2023-03-15T12:41:40.314Z,99983.72
2023-03-15T12:44:36.112Z,99985.94
2023-03-15T12:47:05.388Z,99979.63
2023-03-15T12:49:39.709Z,99988.09
2023-03-15T12:52:27.165Z,99979.31
2023-03-15T12:55:00.984Z,99973.25
2023-03-15T12:57:36.779Z,99979.72
2023-03-15T13:00:11.845Z,99985.66
2023-03-15T13:02:45.961Z,99973.53
2023-03-15T13:05:24.256Z,99978.38
2023-03-15T13:07:58.113Z,99971.03
2023-03-15T13:10:40.594Z,99963.47
2023-03-15T13:13:22.929Z,99966.22
2023-03-15T13:16:06.039Z,99975.06
2023-03-15T13:18:37.559Z,99975.00
2023-03-15T13:21:13.662Z,99958.25
2023-03-15T13:23:45.257Z,99963.25
2023-03-15T13:26:33.293Z,99973.00
2023-03-15T13:29:06.349Z,99973.97
2023-03-15T13:31:34.694Z,99972.44
2023-03-15T13:34:13.110Z,99982.94
2023-03-15T13:36:44.363Z,99983.88
2023-03-15T13:39:20.681Z,99977.78
2023-03-15T13:41:48.350Z,99984.25
2023-03-15T13:44:20.974Z,99980.50
2023-03-15T13:46:50.002Z,99978.50
2023-03-15T13:49:18.832Z,99977.75
2023-03-15T13:51:47.730Z,99971.63
2023-03-15T13:54:19.666Z,99966.50
2023-03-15T13:56:58.130Z,99960.03
2023-03-15T13:59:32.933Z,99965.03
2023-03-15T14:02:03.202Z,99950.59
2023-03-15T14:04:36.521Z,99946.47
2023-03-15T14:07:17.939Z,99958.66
2023-03-15T14:09:45.735Z,99951.16
2023-03-15T14:12:22.822Z,99940.22
2023-03-15T14:14:53.715Z,99939.53
2023-03-15T14:17:27.005Z,99944.59
2023-03-15T14:19:56.753Z,99945.00
2023-03-15T14:22:25.656Z,99946.75
2023-03-15T14:24:54.224Z,99945.72
2023-03-15T14:27:24.354Z,99942.50
2023-03-15T14:29:55.496Z,99949.16
2023-03-15T14:32:26.605Z,99944.34
2023-03-15T14:35:01.375Z,99951.50
2023-03-15T14:37:33.263Z,99948.78
2023-03-15T14:40:15.245Z,99955.88
2023-03-15T14:42:43.132Z,99960.56
2023-03-15T14:45:13.229Z,99958.50
2023-03-15T14:47:55.542Z,99963.00
2023-03-15T14:50:26.272Z,99967.50
2023-03-15T14:52:55.159Z,99971.34
2023-03-15T14:55:26.025Z,99967.78
2023-03-15T14:57:53.697Z,99993.84
2023-03-15T15:00:23.324Z,99994.38
2023-03-15T15:02:55.155Z,99989.66
2023-03-15T15:05:26.188Z,100000.66
2023-03-15T15:07:58.828Z,99996.84
2023-03-15T15:10:27.190Z,99997.13
2023-03-15T15:13:05.610Z,100016.03
2023-03-15T15:15:51.871Z,100008.97
2023-03-15T15:18:23.098Z,100005.91
2023-03-15T15:20:54.224Z,100011.88
2023-03-15T15:23:24.543Z,100017.44
2023-03-15T15:25:54.694Z,100026.75
2023-03-15T15:28:34.173Z,100034.47
2023-03-15T15:31:05.508Z,100033.72
2023-03-15T15:33:33.955Z,100028.84
2023-03-15T15:36:02.282Z,100025.66
2023-03-15T15:38:37.993Z,100031.13
2023-03-15T15:41:06.089Z,100032.44
2023-03-15T15:43:33.941Z,100043.69
2023-03-15T15:46:01.911Z,100036.63
2023-03-15T15:48:31.055Z,100029.81
2023-03-15T15:50:58.987Z,100035.31
2023-03-15T15:53:28.709Z,100026.19
2023-03-15T15:55:56.618Z,100022.91
2023-03-15T15:58:24.337Z,100027.41
2023-03-15T16:00:52.265Z,100027.16
2023-03-15T16:03:20.115Z,100035.47
2023-03-15T16:05:49.386Z,100031.13
2023-03-15T16:08:23.234Z,100037.66
2023-03-15T16:10:51.092Z,100040.81
2023-03-15T16:13:18.924Z,100041.47
2023-03-15T16:15:46.597Z,100049.03
2023-03-15T16:18:14.658Z,100046.50
2023-03-15T16:20:42.930Z,100038.31
2023-03-15T16:23:18.059Z,100044.91
2023-03-15T16:25:50.915Z,100045.53
2023-03-15T16:28:18.703Z,100043.84
2023-03-15T16:30:47.314Z,100046.75
2023-03-15T16:33:16.769Z,100045.19
2023-03-15T16:35:45.212Z,100054.06
2023-03-15T16:38:17.115Z,100055.47
2023-03-15T16:40:46.743Z,100058.78
2023-03-15T16:43:15.432Z,100061.84
2023-03-15T16:45:43.208Z,100059.56
2023-03-15T16:48:11.913Z,100060.84
2023-03-15T16:50:40.864Z,100062.41
2023-03-15T16:53:11.184Z,100073.53
2023-03-15T16:55:40.989Z,100062.75
2023-03-15T16:58:17.005Z,100065.09
2023-03-15T17:00:47.032Z,100070.03
2023-03-15T17:03:16.073Z,100076.97
2023-03-15T17:05:46.933Z,100078.63
2023-03-15T17:08:18.519Z,100075.88
2023-03-15T17:10:48.005Z,100080.69
2023-03-15T17:13:21.462Z,100087.53
2023-03-15T17:15:49.114Z,100082.13
2023-03-15T17:18:18.807Z,100075.47
2023-03-15T17:20:46.985Z,100080.91
2023-03-15T17:23:15.164Z,100087.97
2023-03-15T17:25:42.919Z,100089.63
2023-03-15T17:28:12.459Z,100091.53
2023-03-15T17:30:40.192Z,100094.72
2023-03-15T17:33:08.044Z,100099.53
2023-03-15T17:35:38.967Z,100103.19
2023-03-15T17:38:14.213Z,100100.94
2023-03-15T17:40:42.266Z,100098.44
2023-03-15T17:43:14.913Z,100107.66
2023-03-15T17:45:43.450Z,100114.06
2023-03-15T17:48:11.246Z,100118.81
2023-03-15T17:50:39.677Z,100127.91
2023-03-15T17:53:14.675Z,100123.09
2023-03-15T17:55:42.418Z,100122.06
2023-03-15T17:58:13.810Z,100129.69
2023-03-15T18:00:43.440Z,100136.38
2023-03-15T18:03:13.558Z,100138.88
2023-03-15T18:05:41.310Z,100144.63
2023-03-15T18:08:12.152Z,100149.94
2023-03-15T18:10:41.992Z,100147.75
2023-03-15T18:13:17.226Z,100150.19
2023-03-15T18:15:45.358Z,100153.66
2023-03-15T18:18:13.203Z,100159.06
2023-03-15T18:20:41.346Z,100167.09
2023-03-15T18:23:09.392Z,100179.06
2023-03-15T18:25:38.466Z,100173.25
2023-03-15T18:28:06.385Z,100177.19
2023-03-15T18:30:35.645Z,100174.47
2023-03-15T18:33:04.311Z,100175.31
2023-03-15T18:35:35.080Z,100178.97
2023-03-15T18:38:03.960Z,100183.63
2023-03-15T18:40:33.127Z,100178.97
2023-03-15T18:43:01.402Z,100187.41
2023-03-15T18:45:31.832Z,100177.19
2023-03-15T18:48:01.524Z,100178.59
2023-03-15T18:50:30.072Z,100172.75
2023-03-15T18:52:58.139Z,100173.22
2023-03-15T18:55:25.886Z,100172.91
2023-03-15T18:57:54.989Z,100166.19
2023-03-15T19:00:26.450Z,100168.22
2023-03-15T19:02:55.806Z,100174.00
2023-03-15T19:05:25.805Z,100171.63
2023-03-15T19:07:53.636Z,100172.97
2023-03-15T19:10:23.442Z,100173.88
2023-03-15T19:12:52.293Z,100178.88
2023-03-15T19:15:21.280Z,100182.91
2023-03-15T19:17:50.922Z,100181.28
2023-03-15T19:20:22.014Z,100192.19
2023-03-15T19:22:51.889Z,100197.50
2023-03-15T19:25:20.871Z,100189.53
2023-03-15T19:27:49.629Z,100197.59
2023-03-15T19:30:22.147Z,100197.97
2023-03-15T19:32:51.337Z,100196.72
2023-03-15T19:35:20.518Z,100202.41
2023-03-15T19:37:49.472Z,100202.31
2023-03-15T19:40:20.088Z,100203.78
2023-03-15T19:42:49.354Z,100202.00
2023-03-15T19:45:17.981Z,100202.56
2023-03-15T19:47:47.240Z,100205.81
2023-03-15T19:50:15.706Z,100197.53
2023-03-15T19:52:46.909Z,100207.56
2023-03-15T19:55:15.635Z,100215.03
2023-03-15T19:57:45.280Z,100215.03
2023-03-15T20:00:16.001Z,100217.25
2023-03-15T20:02:45.021Z,100212.13
2023-03-15T20:05:15.082Z,100211.41
2023-03-15T20:07:43.728Z,100215.78
2023-03-15T20:10:13.412Z,100209.44
2023-03-15T20:12:42.288Z,100214.09
2023-03-15T20:15:14.348Z,100216.66
2023-03-15T20:17:42.315Z,100227.13
2023-03-15T20:20:13.728Z,100224.94
2023-03-15T20:22:43.428Z,100222.25
2023-03-15T20:25:11.925Z,100223.50
2023-03-15T20:27:39.990Z,100222.56
2023-03-15T20:30:09.896Z,100230.50
2023-03-15T20:32:39.003Z,100226.13
2023-03-15T20:35:09.221Z,100222.34
2023-03-15T20:37:42.359Z,100228.00
2023-03-15T20:40:13.172Z,100228.00
2023-03-15T20:42:41.379Z,100230.34
2023-03-15T20:45:12.327Z,100225.53
2023-03-15T20:47:42.448Z,100226.75
2023-03-15T20:50:13.437Z,100237.44
2023-03-15T20:52:42.611Z,100242.56
2023-03-15T20:55:11.580Z,100242.13
2023-03-15T20:57:41.693Z,100241.63
2023-03-15T21:00:14.509Z,100238.25
2023-03-15T21:02:43.614Z,100243.50
2023-03-15T21:05:12.969Z,100239.94
2023-03-15T21:07:42.056Z,100235.31
2023-03-15T21:10:13.969Z,100237.84
2023-03-15T21:12:41.926Z,100238.78
2023-03-15T21:15:15.279Z,100230.00
2023-03-15T21:17:44.350Z,100235.44
2023-03-15T21:20:15.325Z,100234.59
2023-03-15T21:22:43.261Z,100231.56
2023-03-15T21:25:11.294Z,100240.13
2023-03-15T21:27:38.883Z,100236.88
2023-03-15T21:30:08.045Z,100243.94
2023-03-15T21:32:36.014Z,100234.84
2023-03-15T21:35:06.059Z,100239.88
2023-03-15T21:37:34.204Z,100236.22
2023-03-15T21:40:01.884Z,100240.28
2023-03-15T21:42:30.815Z,100243.38
2023-03-15T21:44:58.440Z,100242.47
2023-03-15T21:47:26.166Z,100247.34
2023-03-15T21:49:54.354Z,100250.06
2023-03-15T21:52:26.205Z,100244.03
2023-03-15T21:54:54.094Z,100239.63
2023-03-15T21:57:23.053Z,100242.63
2023-03-15T21:59:50.983Z,100227.16
2023-03-15T22:02:18.728Z,100243.44
2023-03-15T22:04:46.527Z,100242.69
2023-03-15T22:07:14.232Z,100237.47
2023-03-15T22:09:43.384Z,100246.44
2023-03-15T22:12:12.166Z,100244.50
2023-03-15T22:14:41.260Z,100238.03
2023-03-15T22:17:09.219Z,100236.56
2023-03-15T22:19:37.008Z,100234.28
2023-03-15T22:22:05.389Z,100232.91
2023-03-15T22:24:34.047Z,100235.38
2023-03-15T22:27:03.283Z,100232.31
2023-03-15T22:29:31.028Z,100242.41
2023-03-15T22:31:58.733Z,100234.94
2023-03-15T22:34:29.077Z,100239.59
2023-03-15T22:36:56.759Z,100237.84
2023-03-15T22:39:24.482Z,100228.63
2023-03-15T22:41:52.112Z,100224.75
2023-03-15T22:44:21.703Z,100228.28
2023-03-15T22:46:49.545Z,100234.22
2023-03-15T22:49:17.295Z,100237.03
2023-03-15T22:51:45.036Z,100231.16
2023-03-15T22:54:12.768Z,100241.50
2023-03-15T22:56:41.086Z,100234.91
2023-03-15T22:59:08.793Z,100237.06
2023-03-15T23:01:38.017Z,100240.66
2023-03-15T23:04:05.859Z,100240.41
2023-03-15T23:06:33.877Z,100241.63
2023-03-15T23:09:01.552Z,100233.34
2023-03-15T23:11:29.328Z,100234.66
2023-03-15T23:13:57.004Z,100235.13
2023-03-15T23:16:24.676Z,100237.63
2023-03-15T23:18:53.964Z,100239.41
2023-03-15T23:21:21.832Z,100241.34
2023-03-15T23:23:49.533Z,100222.72
2023-03-15T23:26:19.418Z,100228.63
2023-03-15T23:28:47.209Z,100230.91
2023-03-15T23:31:15.094Z,100230.09
2023-03-15T23:33:46.908Z,100226.28
2023-03-15T23:36:16.310Z,100231.78
2023-03-15T23:38:44.118Z,100229.81
2023-03-15T23:41:12.407Z,100233.44
2023-03-15T23:43:40.218Z,100233.72
2023-03-15T23:46:07.865Z,100235.47
2023-03-15T23:48:37.014Z,100226.63
2023-03-15T23:51:05.391Z,100227.19
2023-03-15T23:53:34.798Z,100238.72
2023-03-15T23:56:03.028Z,100237.63
2023-03-15T23:58:30.863Z,100231.22
